Time;durP1;ratioP1;P1;durP2;ratioP2;P2;SDS_P1;SDS_P2;PMS_P1;PMS_P2;Temp;Humidity;BMP_temperature;BMP_pressure;BME280_temperature;BME280_humidity;BME280_pressure;Samples;Min_cycle;Max_cycle;Signal;HPM_P1;HPM_P2
2024/02/26 00:01:54;;;;;;;0.80;0.80;;;;;;;7.64;56.03;96629.91;4948246;28;20035;-91
2024/02/26 00:04:21;;;;;;;0.80;0.80;;;;;;;7.56;56.76;96637.81;4952196;28;20031;-91
2024/02/26 00:06:51;;;;;;;0.80;0.80;;;;;;;7.45;57.09;96629.78;4940512;28;20767;-93
2024/02/26 00:09:16;;;;;;;0.80;0.80;;;;;;;7.50;56.52;96628.91;4950330;28;20046;-91
2024/02/26 00:11:42;;;;;;;0.80;0.80;;;;;;;7.48;56.26;96628.03;4951262;28;20101;-92
2024/02/26 00:14:07;;;;;;;0.70;0.70;;;;;;;7.33;56.69;96628.78;4950755;28;20102;-92
2024/02/26 00:16:33;;;;;;;0.80;0.80;;;;;;;7.43;56.22;96635.97;4953229;28;20421;-93
2024/02/26 00:18:58;;;;;;;0.80;0.80;;;;;;;7.44;56.27;96632.41;4951872;28;20031;-91
2024/02/26 00:21:24;;;;;;;0.70;0.70;;;;;;;7.40;56.11;96630.63;4951400;28;20047;-91
2024/02/26 00:23:52;;;;;;;0.80;0.80;;;;;;;7.40;56.53;96642.13;4970887;28;20019;-92
2024/02/26 00:26:18;;;;;;;0.70;0.70;;;;;;;7.20;56.86;96639.31;4970934;28;20027;-92
2024/02/26 00:28:43;;;;;;;0.70;0.70;;;;;;;7.34;56.18;96634.13;4937281;28;20803;-92
2024/02/26 00:31:10;;;;;;;0.80;0.80;;;;;;;7.40;55.58;96635.94;4970590;28;20489;-91
2024/02/26 00:33:36;;;;;;;0.80;0.80;;;;;;;7.31;55.61;96641.16;4972252;28;20026;-91
2024/02/26 00:36:01;;;;;;;0.70;0.70;;;;;;;7.14;56.04;96633.06;4969613;28;20038;-91
2024/02/26 00:38:27;;;;;;;0.70;0.70;;;;;;;7.10;56.56;96649.81;4953119;28;20054;-92
2024/02/26 00:40:52;;;;;;;0.80;0.80;;;;;;;7.11;56.41;96647.19;4942613;28;20050;-91
2024/02/26 00:43:17;;;;;;;0.80;0.80;;;;;;;7.09;56.83;96648.03;4945954;28;20038;-91
2024/02/26 00:45:43;;;;;;;0.73;0.73;;;;;;;7.11;56.86;96641.00;4943248;28;20058;-93
2024/02/26 00:48:08;;;;;;;0.70;0.70;;;;;;;6.87;58.30;96646.94;4945530;28;20126;-91
2024/02/26 00:50:34;;;;;;;0.80;0.80;;;;;;;6.77;58.46;96650.38;4945959;28;20137;-91
2024/02/26 00:53:01;;;;;;;0.70;0.70;;;;;;;6.71;58.99;96648.56;4958161;28;20038;-92
2024/02/26 00:55:26;;;;;;;0.70;0.70;;;;;;;6.61;59.31;96647.56;4978871;28;20043;-91
2024/02/26 00:57:52;;;;;;;0.77;0.77;;;;;;;6.48;60.29;96645.66;4966693;28;20324;-91
2024/02/26 01:00:17;;;;;;;0.80;0.80;;;;;;;6.50;60.15;96649.19;4969309;28;20338;-91
2024/02/26 01:02:43;;;;;;;0.75;0.75;;;;;;;6.52;59.50;96641.28;4967603;28;20094;-90
2024/02/26 01:05:11;;;;;;;0.80;0.80;;;;;;;6.30;60.85;96629.53;4980294;28;20312;-90
2024/02/26 01:07:37;;;;;;;0.80;0.80;;;;;;;6.40;60.79;96636.72;4951646;28;20035;-91
2024/02/26 01:10:03;;;;;;;0.80;0.80;;;;;;;6.33;60.98;96637.53;4955766;28;20027;-91
2024/02/26 01:12:28;;;;;;;0.80;0.80;;;;;;;6.46;60.32;96631.50;4969889;28;20027;-91
2024/02/26 01:14:54;;;;;;;0.80;0.80;;;;;;;6.41;61.29;96634.09;4976291;28;20042;-89
2024/02/26 01:17:19;;;;;;;0.70;0.70;;;;;;;6.28;61.61;96640.13;4956640;28;20035;-90
2024/02/26 01:19:45;;;;;;;0.80;0.80;;;;;;;6.26;62.44;96631.25;4978251;28;20107;-92
2024/02/26 01:22:10;;;;;;;0.80;0.80;;;;;;;6.22;62.75;96639.16;4968697;28;20030;-91
2024/02/26 01:24:35;;;;;;;0.77;0.77;;;;;;;6.15;63.44;96638.19;4968374;28;20027;-92
2024/02/26 01:27:01;;;;;;;0.70;0.70;;;;;;;6.06;64.58;96635.44;4953199;28;20396;-92
2024/02/26 01:29:26;;;;;;;0.80;0.80;;;;;;;6.12;64.02;96640.78;4949557;28;20039;-91
2024/02/26 01:31:52;;;;;;;0.80;0.80;;;;;;;6.03;63.49;96636.25;4956552;28;20030;-93
2024/02/26 01:34:18;;;;;;;0.80;0.80;;;;;;;6.04;64.15;96638.06;4955310;28;20917;-92
2024/02/26 01:36:44;;;;;;;0.80;0.80;;;;;;;5.97;64.73;96637.94;4969059;28;20053;-91
2024/02/26 01:39:12;;;;;;;0.90;0.90;;;;;;;5.93;65.52;96638.78;4953040;28;20030;-92
2024/02/26 01:41:38;;;;;;;0.80;0.80;;;;;;;5.94;65.27;96648.47;4956188;28;20061;-92
2024/02/26 01:44:04;;;;;;;0.80;0.80;;;;;;;5.88;66.47;96650.16;4949620;28;20047;-91
2024/02/26 01:46:31;;;;;;;0.80;0.80;;;;;;;6.01;66.12;96642.41;4956714;28;20063;-92
2024/02/26 01:48:57;;;;;;;0.80;0.80;;;;;;;6.01;65.90;96650.38;4952984;28;20035;-92
2024/02/26 01:51:23;;;;;;;0.70;0.70;;;;;;;5.93;66.04;96654.66;4945441;28;20082;-92
2024/02/26 01:53:49;;;;;;;0.88;0.88;;;;;;;5.90;66.21;96651.06;4952705;28;20125;-93
2024/02/26 01:56:16;;;;;;;0.80;0.80;;;;;;;5.90;66.42;96656.38;4970895;28;20566;-91
2024/02/26 01:58:43;;;;;;;0.70;0.70;;;;;;;6.08;66.14;96649.56;4965370;28;20031;-92
2024/02/26 02:01:09;;;;;;;0.90;0.90;;;;;;;6.20;65.88;96654.13;4944816;28;20042;-92
2024/02/26 02:03:36;;;;;;;0.70;0.70;;;;;;;6.03;66.69;96633.63;4954988;28;20035;-91
2024/02/26 02:06:03;;;;;;;0.73;0.73;;;;;;;6.05;65.29;96628.38;4957368;28;20062;-92
2024/02/26 02:08:28;;;;;;;0.80;0.80;;;;;;;6.17;64.60;96647.91;4942478;28;20035;-91
2024/02/26 02:10:56;;;;;;;0.80;0.80;;;;;;;6.25;65.41;96631.25;4943752;28;20525;-90
2024/02/26 02:13:22;;;;;;;0.90;0.90;;;;;;;6.11;66.30;96620.50;4956192;28;20034;-92
2024/02/26 02:15:47;;;;;;;0.80;0.80;;;;;;;5.96;66.56;96617.66;4965069;28;20124;-92
2024/02/26 02:18:12;;;;;;;0.90;0.90;;;;;;;5.85;66.78;96621.03;4950494;29;20039;-92
2024/02/26 02:20:38;;;;;;;0.82;0.82;;;;;;;5.80;66.77;96633.31;4952435;28;20133;-91
2024/02/26 02:23:03;;;;;;;0.90;0.90;;;;;;;5.78;66.92;96634.13;4937194;28;20038;-92
2024/02/26 02:25:29;;;;;;;0.80;0.80;;;;;;;5.85;66.56;96636.91;4952243;29;20042;-91
2024/02/26 02:27:55;;;;;;;0.80;0.80;;;;;;;5.86;66.92;96649.25;4939218;28;20027;-91
2024/02/26 02:30:29;;;;;;;0.80;0.80;;;;;;;5.79;67.36;96651.78;4969355;28;20121;-92
2024/02/26 02:32:55;;;;;;;0.80;0.80;;;;;;;5.95;66.84;96660.88;4955448;28;20043;-91
2024/02/26 02:35:20;;;;;;;0.70;0.70;;;;;;;5.94;66.69;96661.72;4953300;28;20500;-91
2024/02/26 02:37:46;;;;;;;0.80;0.80;;;;;;;5.89;66.54;96669.56;4953147;28;20441;-92
2024/02/26 02:40:12;;;;;;;0.90;0.90;;;;;;;5.88;67.12;96671.31;4969337;28;20027;-92
2024/02/26 02:42:37;;;;;;;0.80;0.80;;;;;;;5.97;66.67;96675.88;4941825;28;20047;-91
2024/02/26 02:45:03;;;;;;;0.90;0.90;;;;;;;5.79;68.47;96687.06;4935096;28;20030;-92
2024/02/26 02:47:28;;;;;;;0.80;0.80;;;;;;;5.84;69.12;96676.53;4969392;28;20050;-92
2024/02/26 02:49:54;;;;;;;0.80;0.80;;;;;;;5.76;69.47;96679.09;4937437;28;20042;-91
2024/02/26 02:52:19;;;;;;;0.85;0.85;;;;;;;5.72;68.63;96684.31;4968612;28;20043;-90
2024/02/26 02:54:46;;;;;;;0.88;0.88;;;;;;;5.70;69.03;96686.94;4969324;28;20042;-91
2024/02/26 02:57:12;;;;;;;0.80;0.80;;;;;;;5.59;70.10;96675.31;4950073;28;20042;-92
2024/02/26 02:59:39;;;;;;;0.82;0.82;;;;;;;5.60;70.05;96685.91;4947782;28;20138;-91
2024/02/26 03:02:05;;;;;;;0.90;0.90;;;;;;;5.57;70.03;96684.97;4947780;28;20024;-92
2024/02/26 03:04:31;;;;;;;0.80;0.80;;;;;;;5.55;70.37;96679.66;4964647;28;20047;-90
2024/02/26 03:06:57;;;;;;;0.80;0.80;;;;;;;5.55;70.69;96684.03;4967360;28;20814;-91
2024/02/26 03:09:23;;;;;;;0.90;0.90;;;;;;;5.61;70.81;96689.47;4950882;28;20059;-90
2024/02/26 03:11:49;;;;;;;0.90;0.90;;;;;;;5.58;71.11;96692.94;4968028;28;20060;-90
2024/02/26 03:14:14;;;;;;;0.80;0.80;;;;;;;5.73;71.14;96691.38;4967048;28;20683;-91
2024/02/26 03:16:40;;;;;;;0.80;0.80;;;;;;;5.70;71.06;96705.47;4964382;28;20026;-90
2024/02/26 03:19:05;;;;;;;0.80;0.80;;;;;;;5.63;71.37;96708.88;4950339;28;20077;-90
2024/02/26 03:21:31;;;;;;;0.80;0.80;;;;;;;5.65;70.79;96707.13;4946123;28;20038;-89
2024/02/26 03:23:57;;;;;;;0.80;0.80;;;;;;;5.59;72.03;96701.75;4950165;28;20041;-90
2024/02/26 03:26:23;;;;;;;0.80;0.80;;;;;;;5.62;72.51;96696.53;4953859;28;20031;-92
2024/02/26 03:28:48;;;;;;;0.80;0.80;;;;;;;5.57;72.71;96703.50;4951817;28;20050;-92
2024/02/26 03:31:14;;;;;;;0.80;0.80;;;;;;;5.59;72.34;96712.34;4951539;28;20027;-91
2024/02/26 03:33:40;;;;;;;0.80;0.80;;;;;;;5.59;72.80;96717.63;4955098;28;20117;-90
2024/02/26 03:36:07;;;;;;;0.80;0.80;;;;;;;5.55;73.02;96729.00;4971002;28;20055;-90
2024/02/26 03:38:33;;;;;;;0.80;0.80;;;;;;;5.49;73.00;96723.63;4954682;28;20071;-92
2024/02/26 03:40:58;;;;;;;0.80;0.80;;;;;;;5.50;72.87;96709.53;4936257;28;20066;-92
2024/02/26 03:43:24;;;;;;;0.80;0.80;;;;;;;5.58;72.94;96713.19;4969867;28;20533;-92
2024/02/26 03:45:49;;;;;;;0.80;0.80;;;;;;;5.64;72.85;96721.22;4956040;28;20035;-93
2024/02/26 03:48:15;;;;;;;0.90;0.90;;;;;;;5.64;72.89;96719.47;4964352;28;20073;-92
2024/02/26 03:50:40;;;;;;;0.90;0.90;;;;;;;5.42;74.65;96730.59;4957541;28;20042;-92
2024/02/26 03:53:05;;;;;;;0.80;0.80;;;;;;;5.31;74.79;96729.50;4948138;28;20034;-92
2024/02/26 03:55:31;;;;;;;0.80;0.80;;;;;;;5.36;75.70;96738.38;4969052;28;20054;-92
2024/02/26 03:57:56;;;;;;;0.73;0.73;;;;;;;5.44;74.98;96734.13;4966579;28;20035;-92
2024/02/26 04:00:22;;;;;;;0.80;0.80;;;;;;;5.36;75.60;96739.28;4965696;28;20031;-91
2024/02/26 04:02:47;;;;;;;0.80;0.80;;;;;;;5.32;76.45;96731.31;4938008;28;20031;-92
2024/02/26 04:05:14;;;;;;;0.80;0.80;;;;;;;5.24;77.92;96711.75;4970395;28;20030;-90
2024/02/26 04:07:40;;;;;;;0.90;0.90;;;;;;;5.20;78.04;96708.16;4953685;28;20085;-93
2024/02/26 04:10:12;;;;;;;0.90;0.90;;;;;;;5.10;78.02;96703.59;4951911;28;20093;-90
2024/02/26 04:12:44;;;;;;;0.90;0.90;;;;;;;5.01;79.48;96695.50;4969553;28;20049;-91
2024/02/26 04:15:10;;;;;;;0.80;0.80;;;;;;;4.91;80.58;96702.38;4967939;28;20034;-91
2024/02/26 04:17:37;;;;;;;1.00;1.00;;;;;;;4.88;80.20;96689.97;4951996;28;20628;-91
2024/02/26 04:20:05;;;;;;;0.90;0.90;;;;;;;4.93;81.36;96686.53;4939406;28;20141;-92
2024/02/26 04:22:31;;;;;;;0.90;0.90;;;;;;;4.96;80.28;96666.34;4954545;28;20045;-92
2024/02/26 04:24:56;;;;;;;0.90;0.90;;;;;;;4.92;81.07;96672.44;4956799;28;20030;-91
2024/02/26 04:27:21;;;;;;;0.80;0.80;;;;;;;4.73;83.51;96671.19;4967263;28;20034;-92
2024/02/26 04:29:47;;;;;;;0.82;0.82;;;;;;;4.66;84.32;96674.59;4950121;28;20081;-91
2024/02/26 04:32:12;;;;;;;0.80;0.80;;;;;;;4.67;85.10;96675.50;4953910;28;20481;-90
2024/02/26 04:34:38;;;;;;;0.80;0.80;;;;;;;4.64;84.91;96685.13;4957568;28;20034;-89
2024/02/26 04:37:03;;;;;;;0.90;0.90;;;;;;;5.09;81.97;96683.31;4980411;28;20062;-90
2024/02/26 04:39:29;;;;;;;0.90;0.90;;;;;;;5.43;82.08;96686.53;4957587;28;20047;-90
2024/02/26 04:41:54;;;;;;;0.90;0.90;;;;;;;5.30;83.08;96683.66;4957243;28;20027;-91
2024/02/26 04:44:20;;;;;;;0.90;0.90;;;;;;;5.25;84.76;96684.44;4955638;28;20035;-90
2024/02/26 04:46:45;;;;;;;0.80;0.80;;;;;;;5.28;85.19;96673.94;4935983;28;20031;-91
2024/02/26 04:49:10;;;;;;;1.00;1.00;;;;;;;5.20;85.90;96676.44;4952872;28;20078;-90
2024/02/26 04:51:37;;;;;;;0.80;0.80;;;;;;;5.08;86.93;96669.22;4948978;28;20030;-90
2024/02/26 04:54:03;;;;;;;0.80;0.80;;;;;;;5.15;86.92;96668.44;4941675;28;20042;-92
2024/02/26 04:56:28;;;;;;;0.90;0.90;;;;;;;5.22;87.41;96664.16;4948786;28;20076;-91
2024/02/26 04:58:54;;;;;;;0.98;0.98;;;;;;;5.19;87.56;96665.84;4962802;28;20114;-92
2024/02/26 05:01:20;;;;;;;0.80;0.80;;;;;;;5.30;87.17;96667.78;4971885;28;20047;-92
2024/02/26 05:03:46;;;;;;;0.80;0.80;;;;;;;5.19;87.60;96661.44;4953138;28;20039;-94
2024/02/26 05:06:13;;;;;;;0.80;0.80;;;;;;;5.15;88.24;96647.28;4953425;28;20037;-94
2024/02/26 05:08:38;;;;;;;0.90;0.90;;;;;;;5.24;87.96;96649.19;4955736;28;20026;-92
2024/02/26 05:11:04;;;;;;;0.90;0.90;;;;;;;5.42;87.28;96639.78;4943015;28;20039;-93
2024/02/26 05:13:30;;;;;;;0.80;0.80;;;;;;;5.76;84.30;96639.41;4972677;28;20030;-93
2024/02/26 05:15:58;;;;;;;0.90;0.90;;;;;;;6.04;81.71;96631.88;4972059;28;20043;-94
2024/02/26 05:18:24;;;;;;;0.80;0.80;;;;;;;6.04;81.16;96626.59;4958240;28;20035;-95
2024/02/26 05:20:49;;;;;;;0.80;0.80;;;;;;;6.31;79.19;96632.19;4975139;28;20023;-95
2024/02/26 05:23:15;;;;;;;0.80;0.80;;;;;;;6.22;78.67;96618.84;4976799;28;20054;-93
2024/02/26 05:25:42;;;;;;;0.90;0.90;;;;;;;6.31;79.14;96624.25;4948124;28;20110;-90
2024/02/26 05:28:08;;;;;;;0.70;0.70;;;;;;;6.00;80.52;96630.94;4947904;28;20062;-93
2024/02/26 05:30:33;;;;;;;0.90;0.90;;;;;;;5.86;82.50;96635.13;4952808;28;20074;-92
2024/02/26 05:32:59;;;;;;;0.80;0.80;;;;;;;5.70;83.51;96639.34;4951409;28;20047;-92
2024/02/26 05:35:25;;;;;;;0.80;0.80;;;;;;;5.62;83.96;96633.91;4972168;28;20097;-87
2024/02/26 05:37:51;;;;;;;0.80;0.80;;;;;;;5.51;85.72;96631.97;4973464;28;20027;-91
2024/02/26 05:40:17;;;;;;;0.80;0.80;;;;;;;5.49;85.15;96636.34;4957744;28;20057;-93
2024/02/26 05:42:44;;;;;;;0.80;0.80;;;;;;;5.52;84.56;96631.13;4987020;28;20023;-89
2024/02/26 05:45:11;;;;;;;0.80;0.80;;;;;;;5.56;85.12;96633.84;4955091;28;20027;-92
2024/02/26 05:47:42;;;;;;;0.80;0.80;;;;;;;5.65;83.83;96641.91;4964059;28;20030;-93
2024/02/26 05:50:10;;;;;;;0.80;0.80;;;;;;;5.61;83.74;96636.56;4993072;28;20042;-94
2024/02/26 05:52:37;;;;;;;0.80;0.80;;;;;;;5.81;81.93;96645.66;4977198;28;20524;-92
2024/02/26 05:55:03;;;;;;;0.70;0.70;;;;;;;5.60;82.83;96645.31;4963374;28;20026;-94
2024/02/26 05:57:28;;;;;;;0.80;0.80;;;;;;;5.56;83.93;96647.06;4959113;28;20042;-93
2024/02/26 05:59:54;;;;;;;0.80;0.80;;;;;;;5.56;84.58;96655.00;4979634;28;20546;-95
2024/02/26 06:02:19;;;;;;;0.80;0.80;;;;;;;5.49;85.89;96662.81;4953661;28;20085;-93
2024/02/26 06:04:46;;;;;;;0.80;0.80;;;;;;;5.54;85.61;96662.00;4939833;28;20089;-93
2024/02/26 06:07:11;;;;;;;0.80;0.80;;;;;;;5.69;85.07;96677.22;4955177;28;20042;-92
2024/02/26 06:09:37;;;;;;;0.80;0.80;;;;;;;5.71;85.15;96694.03;4954562;28;20043;-92
2024/02/26 06:12:02;;;;;;;0.85;0.85;;;;;;;5.83;84.37;96712.69;4967479;28;20114;-92
2024/02/26 06:14:28;;;;;;;0.80;0.80;;;;;;;5.82;84.39;96715.34;4965902;28;20031;-92
2024/02/26 06:16:55;;;;;;;0.70;0.70;;;;;;;5.85;84.02;96734.81;4936907;28;20039;-92
2024/02/26 06:19:20;;;;;;;0.90;0.90;;;;;;;6.12;82.29;96744.94;4951385;28;20162;-93
2024/02/26 06:21:46;;;;;;;0.80;0.80;;;;;;;6.05;81.89;96755.44;4950547;28;20484;-93
2024/02/26 06:24:11;;;;;;;0.80;0.80;;;;;;;5.97;82.45;96765.00;4945464;28;20037;-92
2024/02/26 06:26:36;;;;;;;0.80;0.80;;;;;;;5.72;83.87;96766.34;4935539;28;20404;-92
2024/02/26 06:29:02;;;;;;;0.80;0.80;;;;;;;5.58;84.71;96782.88;4962462;28;20023;-92
2024/02/26 06:31:28;;;;;;;0.80;0.80;;;;;;;5.59;85.61;96773.16;4953174;28;20109;-92
2024/02/26 06:33:54;;;;;;;0.80;0.80;;;;;;;5.61;85.23;96745.00;4953204;28;20050;-92
2024/02/26 06:36:20;;;;;;;0.80;0.80;;;;;;;5.62;84.80;96749.44;4949593;28;20097;-91
2024/02/26 06:38:45;;;;;;;0.90;0.90;;;;;;;5.52;85.13;96753.69;4952681;28;20457;-92
2024/02/26 06:41:11;;;;;;;0.80;0.80;;;;;;;5.52;86.17;96768.66;4974768;28;20042;-91
2024/02/26 06:43:37;;;;;;;0.80;0.80;;;;;;;5.49;86.29;96777.41;4960031;28;20034;-91
2024/02/26 06:46:02;;;;;;;0.80;0.80;;;;;;;5.42;86.75;96779.94;4945889;28;20035;-92
2024/02/26 06:48:28;;;;;;;0.80;0.80;;;;;;;5.36;85.91;96780.69;4943595;28;20043;-92
2024/02/26 06:50:53;;;;;;;0.82;0.82;;;;;;;5.41;85.96;96771.09;4972508;28;20030;-89
2024/02/26 06:53:19;;;;;;;0.90;0.90;;;;;;;5.40;86.19;96764.03;4970416;28;20374;-90
2024/02/26 06:55:45;;;;;;;0.90;0.90;;;;;;;5.50;85.78;96765.97;4954400;28;20037;-91
2024/02/26 06:58:12;;;;;;;0.90;0.90;;;;;;;5.42;86.11;96762.31;4966539;28;20034;-92
2024/02/26 07:00:37;;;;;;;0.90;0.90;;;;;;;5.43;86.51;96763.22;4950744;28;20444;-93
2024/02/26 07:03:03;;;;;;;0.90;0.90;;;;;;;5.47;86.06;96758.00;4969115;28;20142;-91
2024/02/26 07:05:29;;;;;;;0.90;0.90;;;;;;;5.54;86.01;96761.63;4968670;28;20457;-92
2024/02/26 07:07:54;;;;;;;0.90;0.90;;;;;;;5.57;86.25;96766.97;4956151;28;20027;-93
2024/02/26 07:10:21;;;;;;;0.80;0.80;;;;;;;5.61;86.22;96771.47;4957254;28;20034;-93
2024/02/26 07:12:46;;;;;;;0.80;0.80;;;;;;;5.69;86.08;96769.81;4946636;28;20046;-92
2024/02/26 07:15:12;;;;;;;0.90;0.90;;;;;;;5.66;86.43;96775.06;4951707;28;20035;-93
2024/02/26 07:17:39;;;;;;;0.90;0.90;;;;;;;5.72;86.35;96782.22;4938726;28;20042;-92
2024/02/26 07:20:05;;;;;;;0.90;0.90;;;;;;;5.70;86.38;96778.63;4941017;28;20489;-93
2024/02/26 07:22:31;;;;;;;0.80;0.80;;;;;;;5.71;86.74;96783.09;4938895;29;20102;-92
2024/02/26 07:24:56;;;;;;;0.70;0.70;;;;;;;5.76;87.15;96787.59;4926255;28;20039;-93
2024/02/26 07:27:22;;;;;;;0.90;0.90;;;;;;;5.84;87.00;96793.88;4962672;28;20043;-93
2024/02/26 07:29:47;;;;;;;0.80;0.80;;;;;;;5.93;86.57;96794.91;4954061;28;20090;-92
2024/02/26 07:32:13;;;;;;;0.80;0.80;;;;;;;6.16;84.59;96794.41;4950638;29;20054;-92
2024/02/26 07:34:41;;;;;;;0.80;0.80;;;;;;;6.05;85.01;96792.47;4946970;28;20061;-93
2024/02/26 07:37:11;;;;;;;0.90;0.90;;;;;;;6.13;84.48;96796.13;4950252;28;20401;-92
2024/02/26 07:39:36;;;;;;;0.80;0.80;;;;;;;6.11;83.92;96792.56;4950787;29;20390;-92
2024/02/26 07:42:03;;;;;;;0.80;0.80;;;;;;;6.28;83.30;96793.72;4946491;28;20049;-91
2024/02/26 07:44:28;;;;;;;0.80;0.80;;;;;;;6.47;82.87;96796.59;4931467;28;20034;-93
2024/02/26 07:46:53;;;;;;;0.70;0.70;;;;;;;6.52;82.57;96800.25;4966960;28;20038;-92
2024/02/26 07:49:19;;;;;;;0.80;0.80;;;;;;;6.47;82.51;96794.88;4936951;28;20151;-93
2024/02/26 07:51:44;;;;;;;0.70;0.70;;;;;;;6.57;82.31;96793.25;4956778;28;20042;-92
2024/02/26 07:54:10;;;;;;;0.80;0.80;;;;;;;6.66;82.17;96798.66;4957392;28;20035;-91
2024/02/26 07:56:36;;;;;;;0.80;0.80;;;;;;;6.65;81.84;96810.09;4982512;28;20111;-91
2024/02/26 07:59:01;;;;;;;0.80;0.80;;;;;;;6.78;82.34;96816.47;4964133;28;20518;-92
2024/02/26 08:01:27;;;;;;;0.70;0.70;;;;;;;6.74;83.88;96818.19;4959260;29;20470;-92
2024/02/26 08:03:53;;;;;;;0.80;0.80;;;;;;;6.85;82.67;96821.88;4951226;28;20106;-93
2024/02/26 08:06:19;;;;;;;0.80;0.80;;;;;;;6.90;82.51;96820.19;4941252;29;20049;-93
2024/02/26 08:08:44;;;;;;;0.75;0.75;;;;;;;6.99;82.55;96808.78;4949338;28;20125;-93
2024/02/26 08:11:10;;;;;;;0.70;0.70;;;;;;;6.67;84.34;96821.63;4953783;28;20126;-92
2024/02/26 08:13:35;;;;;;;0.70;0.70;;;;;;;6.75;84.33;96813.75;4966628;28;20661;-92
2024/02/26 08:16:01;;;;;;;0.80;0.80;;;;;;;6.86;84.36;96813.06;4958438;28;20035;-95
2024/02/26 08:18:27;;;;;;;0.80;0.80;;;;;;;6.91;84.00;96826.38;4970887;28;20062;-92
2024/02/26 08:20:54;;;;;;;0.80;0.80;;;;;;;7.10;83.36;96822.19;4948251;28;20063;-91
2024/02/26 08:23:19;;;;;;;0.88;0.88;;;;;;;7.15;83.11;96823.13;4964623;28;20043;-92
2024/02/26 08:25:46;;;;;;;0.80;0.80;;;;;;;6.78;84.21;96830.59;4962051;28;20056;-93
2024/02/26 08:28:14;;;;;;;0.90;0.90;;;;;;;6.88;84.58;96826.31;4951594;28;20031;-93
2024/02/26 08:30:39;;;;;;;0.80;0.80;;;;;;;7.12;84.92;96825.72;4968702;28;20126;-92
2024/02/26 08:33:06;;;;;;;0.80;0.80;;;;;;;7.27;82.97;96820.59;4948247;28;20130;-93
2024/02/26 08:35:33;;;;;;;0.80;0.80;;;;;;;7.20;82.61;96832.03;4934443;28;20471;-94
2024/02/26 08:37:58;;;;;;;0.90;0.90;;;;;;;7.25;82.25;96824.13;4941236;28;20097;-94
2024/02/26 08:40:24;;;;;;;0.90;0.90;;;;;;;7.51;81.03;96832.34;4922855;29;20047;-94
2024/02/26 08:42:49;;;;;;;0.80;0.80;;;;;;;7.55;81.46;96837.69;4948252;28;20057;-93
2024/02/26 08:45:15;;;;;;;0.70;0.70;;;;;;;7.79;81.54;96829.09;4954571;28;20039;-93
2024/02/26 08:47:44;;;;;;;0.70;0.70;;;;;;;7.67;79.42;96831.66;4949812;29;20030;-94
2024/02/26 08:50:11;;;;;;;0.80;0.80;;;;;;;7.84;79.40;96824.72;4972124;28;20069;-94
2024/02/26 08:52:37;;;;;;;0.70;0.70;;;;;;;7.97;79.67;96821.28;4959243;28;20050;-94
2024/02/26 08:55:03;;;;;;;0.70;0.70;;;;;;;8.08;79.59;96825.81;4972105;28;20177;-93
2024/02/26 08:57:28;;;;;;;0.70;0.70;;;;;;;8.35;78.98;96815.38;4941040;28;20043;-93
2024/02/26 08:59:54;;;;;;;0.70;0.70;;;;;;;8.41;77.92;96822.53;4958242;28;20097;-93
2024/02/26 09:02:19;;;;;;;0.70;0.70;;;;;;;8.59;77.12;96816.47;4960317;28;20042;-95
2024/02/26 09:04:45;;;;;;;0.70;0.70;;;;;;;8.69;77.76;96824.50;4968111;28;20023;-94
2024/02/26 09:07:10;;;;;;;0.70;0.70;;;;;;;8.44;77.82;96825.22;4979758;28;20035;-90
2024/02/26 09:09:37;;;;;;;0.70;0.70;;;;;;;8.84;77.74;96821.03;4966163;28;20047;-89
2024/02/26 09:12:03;;;;;;;0.80;0.80;;;;;;;9.04;76.84;96814.91;4956417;28;20025;-91
2024/02/26 09:14:29;;;;;;;0.80;0.80;;;;;;;9.51;75.68;96805.31;4966394;28;20039;-93
2024/02/26 09:16:55;;;;;;;0.70;0.70;;;;;;;9.97;73.79;96808.06;4936167;28;20047;-93
2024/02/26 09:19:20;;;;;;;0.70;0.70;;;;;;;10.32;71.57;96801.84;4947766;28;20043;-92
2024/02/26 09:21:46;;;;;;;0.60;0.60;;;;;;;10.50;69.74;96809.81;4950295;28;20072;-95
2024/02/26 09:24:12;;;;;;;0.60;0.60;;;;;;;10.43;69.58;96813.38;4968808;28;20039;-94
2024/02/26 09:26:38;;;;;;;0.60;0.60;;;;;;;10.48;69.43;96819.59;4970895;28;20045;-94
2024/02/26 09:29:05;;;;;;;0.68;0.68;;;;;;;10.39;70.42;96813.38;4954975;28;20030;-90
2024/02/26 09:31:31;;;;;;;0.60;0.60;;;;;;;10.38;69.66;96819.59;4949750;28;20046;-94
2024/02/26 09:33:58;;;;;;;0.60;0.60;;;;;;;10.31;68.92;96816.06;4956021;28;20084;-93
2024/02/26 09:36:23;;;;;;;0.63;0.63;;;;;;;10.07;68.99;96814.25;4956602;28;20035;-94
2024/02/26 09:38:49;;;;;;;0.60;0.60;;;;;;;10.05;69.84;96818.69;4950566;28;20051;-93
2024/02/26 09:41:16;;;;;;;0.60;0.60;;;;;;;10.38;69.28;96820.50;4938156;28;20047;-94
2024/02/26 09:43:45;;;;;;;0.70;0.70;;;;;;;10.33;66.08;96816.94;4971629;28;20050;-90
2024/02/26 09:46:10;;;;;;;0.65;0.65;;;;;;;10.10;67.57;96816.91;4972568;28;20360;-93
2024/02/26 09:48:38;;;;;;;0.63;0.63;;;;;;;10.29;67.77;96815.16;4952514;28;20068;-93
2024/02/26 09:51:04;;;;;;;0.70;0.70;;;;;;;10.55;66.22;96816.94;4953174;28;20572;-92
2024/02/26 09:53:31;;;;;;;0.60;0.60;;;;;;;10.77;65.70;96823.97;4961596;28;20058;-93
2024/02/26 09:56:00;;;;;;;0.52;0.52;;;;;;;10.99;65.30;96819.50;4959589;28;20043;-92
2024/02/26 09:58:28;;;;;;;0.60;0.60;;;;;;;10.87;66.61;96825.72;4940612;28;20069;-90
2024/02/26 10:01:02;;;;;;;0.60;0.60;;;;;;;10.66;63.55;96825.78;4967019;28;20039;-92
2024/02/26 10:03:41;;;;;;;0.60;0.60;;;;;;;10.23;64.83;96831.13;4964688;29;20058;-93
2024/02/26 10:06:08;;;;;;;0.60;0.60;;;;;;;10.00;65.90;96826.69;4970721;28;20091;-94
2024/02/26 10:08:35;;;;;;;0.70;0.70;;;;;;;10.14;65.51;96825.81;4976691;28;20033;-89
2024/02/26 10:11:01;;;;;;;0.70;0.70;;;;;;;9.74;65.74;96833.75;4987996;28;20016;-90
2024/02/26 10:13:27;;;;;;;0.68;0.68;;;;;;;10.00;65.28;96840.00;4983899;28;20119;-89
2024/02/26 10:15:53;;;;;;;0.63;0.63;;;;;;;9.79;63.68;96839.09;4976966;28;20050;-91
2024/02/26 10:18:19;;;;;;;0.68;0.68;;;;;;;10.07;64.16;96840.03;4976288;28;20019;-92
2024/02/26 10:21:03;;;;;;;0.70;0.70;;;;;;;10.30;62.91;96842.69;4972851;28;20030;-91
2024/02/26 10:23:29;;;;;;;0.60;0.60;;;;;;;10.92;62.63;96844.41;4949615;28;20039;-90
2024/02/26 10:25:55;;;;;;;0.60;0.60;;;;;;;10.11;63.83;96847.09;4968644;28;20055;-91
2024/02/26 10:28:20;;;;;;;0.60;0.60;;;;;;;10.04;65.26;96859.53;4967101;28;20042;-90
2024/02/26 10:30:46;;;;;;;0.70;0.70;;;;;;;10.15;64.82;96849.78;4952017;28;20077;-90
2024/02/26 10:33:14;;;;;;;0.60;0.60;;;;;;;10.86;63.21;96845.31;4974262;28;20045;-92
2024/02/26 10:35:40;;;;;;;0.60;0.60;;;;;;;11.42;60.47;96840.66;4954083;28;20043;-90
2024/02/26 10:38:09;;;;;;;0.70;0.70;;;;;;;11.22;60.82;96843.44;4951331;28;20035;-90
2024/02/26 10:40:34;;;;;;;0.60;0.60;;;;;;;12.12;60.30;96842.06;4951564;28;20284;-90
2024/02/26 10:43:00;;;;;;;0.70;0.70;;;;;;;12.66;58.73;96826.47;4963229;28;20063;-90
2024/02/26 10:45:26;;;;;;;0.70;0.70;;;;;;;13.66;56.17;96824.44;4952382;28;20023;-90
2024/02/26 10:47:51;;;;;;;0.60;0.60;;;;;;;14.06;52.96;96821.16;4965579;28;20057;-91
2024/02/26 10:50:18;;;;;;;0.60;0.60;;;;;;;14.45;50.11;96805.31;4967124;28;20050;-90
2024/02/26 10:52:43;;;;;;;0.60;0.60;;;;;;;12.73;52.62;96817.44;4965575;28;20082;-89
2024/02/26 10:55:15;;;;;;;0.50;0.50;;;;;;;14.49;51.91;96818.69;4951701;28;20035;-90
2024/02/26 10:57:43;;;;;;;0.43;0.43;;;;;;;14.08;49.92;96814.88;4954024;28;20042;-89
2024/02/26 11:00:12;;;;;;;0.50;0.50;;;;;;;14.88;47.79;96816.22;4966617;28;20042;-90
2024/02/26 11:02:39;;;;;;;0.50;0.50;;;;;;;15.11;46.57;96810.41;4964681;28;20105;-89
2024/02/26 11:05:07;;;;;;;0.40;0.40;;;;;;;15.99;43.15;96801.38;4947580;28;20027;-89
2024/02/26 11:07:37;;;;;;;0.40;0.40;;;;;;;13.80;47.24;96810.84;4947222;28;20085;-89
2024/02/26 11:10:04;;;;;;;0.40;0.40;;;;;;;15.96;44.36;96805.03;4944786;28;20069;-89
2024/02/26 11:12:36;;;;;;;0.40;0.40;;;;;;;16.64;41.12;96799.78;4950986;28;20036;-90
2024/02/26 11:15:03;;;;;;;0.30;0.30;;;;;;;17.12;40.54;96802.13;4972165;28;20046;-90
2024/02/26 11:17:31;;;;;;;0.20;0.20;;;;;;;14.91;43.00;96804.53;4964981;28;20548;-91
2024/02/26 11:19:59;;;;;;;0.40;0.40;;;;;;;14.50;45.45;96803.47;4955837;28;20051;-90
2024/02/26 11:22:26;;;;;;;;;;;;;;;14.63;45.61;96787.13;4945297;28;20083;-90
2024/02/26 11:24:54;;;;;;;0.40;0.40;;;;;;;15.00;43.87;96794.50;4948743;28;19921;-90
2024/02/26 11:27:23;;;;;;;0.40;0.40;;;;;;;15.16;44.85;96804.94;4950944;28;20027;-90
2024/02/26 11:29:53;;;;;;;0.40;0.40;;;;;;;14.43;46.25;96812.53;4970521;28;20043;-90
2024/02/26 11:32:19;;;;;;;0.40;0.40;;;;;;;13.76;48.48;96815.34;4957147;28;20371;-92
2024/02/26 11:34:44;;;;;;;0.40;0.40;;;;;;;14.40;47.38;96809.88;4957847;28;20039;-90
2024/02/26 11:37:11;;;;;;;0.40;0.40;;;;;;;15.08;46.56;96814.03;4968335;28;20074;-92